地図

経路データ

SID SEASON NUMBER BASIN SUBBASIN NAME ISO_TIME NATURE LAT LON WMO_WIND WMO_PRES WMO_AGENCY TRACK_TYPE DIST2LAND LANDFALL IFLAG USA_AGENCY USA_ATCF_ID USA_LAT USA_LON USA_RECORD USA_STATUS USA_WIND USA_PRES USA_SSHS USA_R34_NE USA_R34_SE USA_R34_SW USA_R34_NW USA_R50_NE USA_R50_SE USA_R50_SW USA_R50_NW USA_R64_NE USA_R64_SE USA_R64_SW USA_R64_NW USA_POCI USA_ROCI USA_RMW USA_EYE TOKYO_LAT TOKYO_LON TOKYO_GRADE TOKYO_WIND TOKYO_PRES TOKYO_R50_DIR TOKYO_R50_LONG TOKYO_R50_SHORT TOKYO_R30_DIR TOKYO_R30_LONG TOKYO_R30_SHORT TOKYO_LAND CMA_LAT CMA_LON CMA_CAT CMA_WIND CMA_PRES HKO_LAT HKO_LON HKO_CAT HKO_WIND HKO_PRES NEWDELHI_LAT NEWDELHI_LON NEWDELHI_GRADE NEWDELHI_WIND NEWDELHI_PRES NEWDELHI_CI NEWDELHI_DP NEWDELHI_POCI REUNION_LAT REUNION_LON REUNION_TYPE REUNION_WIND REUNION_PRES REUNION_TNUM REUNION_CI REUNION_RMW REUNION_R34_NE REUNION_R34_SE REUNION_R34_SW REUNION_R34_NW REUNION_R50_NE REUNION_R50_SE REUNION_R50_SW REUNION_R50_NW REUNION_R64_NE REUNION_R64_SE REUNION_R64_SW REUNION_R64_NW BOM_LAT BOM_LON BOM_TYPE BOM_WIND BOM_PRES BOM_TNUM BOM_CI BOM_RMW BOM_R34_NE BOM_R34_SE BOM_R34_SW BOM_R34_NW BOM_R50_NE BOM_R50_SE BOM_R50_SW BOM_R50_NW BOM_R64_NE BOM_R64_SE BOM_R64_SW BOM_R64_NW BOM_ROCI BOM_POCI BOM_EYE BOM_POS_METHOD BOM_PRES_METHOD NADI_LAT NADI_LON NADI_CAT NADI_WIND NADI_PRES WELLINGTON_LAT WELLINGTON_LON WELLINGTON_WIND WELLINGTON_PRES DS824_LAT DS824_LON DS824_STAGE DS824_WIND DS824_PRES TD9636_LAT TD9636_LON TD9636_STAGE TD9636_WIND TD9636_PRES TD9635_LAT TD9635_LON TD9635_WIND TD9635_PRES TD9635_ROCI NEUMANN_LAT NEUMANN_LON NEUMANN_CLASS NEUMANN_WIND NEUMANN_PRES MLC_LAT MLC_LON MLC_CLASS MLC_WIND MLC_PRES USA_GUST BOM_GUST BOM_GUST_PER REUNION_GUST REUNION_GUST_PER USA_SEAHGT USA_SEARAD_NE USA_SEARAD_SE USA_SEARAD_SW USA_SEARAD_NW STORM_SPEED STORM_DIR
1884259N14338 1884 34 NA NA NOT_NAMED 1884-09-14 12:00:00 TS 13.5000 -22.5000 main 555 555 _____________O -1 13.5000 -22.5000 TD 25 10 286
1884259N14338 1884 34 NA NA NOT_NAMED 1884-09-14 15:00:00 TS 13.6402 -22.9999 main 605 605 _____________P -1 13.6402 -22.9999 TD 27 10 287
1884259N14338 1884 34 NA NA NOT_NAMED 1884-09-14 18:00:00 TS 13.8000 -23.5000 main 654 654 _____________O -1 13.8000 -23.5000 TD 30 10 290
1884259N14338 1884 34 NA NA NOT_NAMED 1884-09-14 21:00:00 TS 13.9924 -24.0000 main 704 704 _____________P -1 13.9924 -24.0000 TD 32 11 292
1884259N14338 1884 34 NA NA NOT_NAMED 1884-09-15 00:00:00 TS 14.2000 -24.5000 main 756 756 _____________O -1 14.2000 -24.5000 TS 35 11 293
1884259N14338 1884 34 NA NA NOT_NAMED 1884-09-15 03:00:00 TS 14.3999 -25.0001 main 808 808 _____________P -1 14.3999 -25.0001 TS 37 11 292
1884259N14338 1884 34 NA NA NOT_NAMED 1884-09-15 06:00:00 TS 14.6000 -25.5000 main 861 861 _____________O -1 14.6000 -25.5000 TS 40 10 293
1884259N14338 1884 34 NA NA NOT_NAMED 1884-09-15 09:00:00 TS 14.8073 -25.9851 main 914 914 _____________P -1 14.8073 -25.9851 TS 42 10 292
1884259N14338 1884 34 NA NA NOT_NAMED 1884-09-15 12:00:00 TS 15.0000 -26.5000 main 968 968 _____________O -1 15.0000 -26.5000 TS 45 11 288
1884259N14338 1884 34 NA NA NOT_NAMED 1884-09-15 15:00:00 TS 15.1650 -27.0925 main 1033 1033 _____________P -1 15.1650 -27.0925 TS 47 12 285
1884259N14338 1884 34 NA NA NOT_NAMED 1884-09-15 18:00:00 TS 15.3000 -27.7000 main 1097 1097 _____________O -1 15.3000 -27.7000 TS 50 11 282
1884259N14338 1884 34 NA NA NOT_NAMED 1884-09-15 21:00:00 TS 15.3998 -28.2577 main 1162 1162 _____________P -1 15.3998 -28.2577 TS 50 11 281
1884259N14338 1884 34 NA NA NOT_NAMED 1884-09-16 00:00:00 TS 15.5000 -28.8000 main 1216 1216 _____________O -1 15.5000 -28.8000 TS 50 11 283
1884259N14338 1884 34 NA NA NOT_NAMED 1884-09-16 03:00:00 TS 15.6424 -29.3500 main 1281 1281 _____________P -1 15.6424 -29.3500 TS 50 11 286
1884259N14338 1884 34 NA NA NOT_NAMED 1884-09-16 06:00:00 TS 15.8000 -29.9000 main 1336 1336 _____________O -1 15.8000 -29.9000 TS 50 11 285
1884259N14338 1884 34 NA NA NOT_NAMED 1884-09-16 09:00:00 TS 15.9349 -30.4577 main 1401 1401 _____________P -1 15.9349 -30.4577 TS 50 11 286
1884259N14338 1884 34 NA NA NOT_NAMED 1884-09-16 12:00:00 TS 16.1000 -31.0000 main 1455 1455 _____________O -1 16.1000 -31.0000 TS 50 11 292
1884259N14338 1884 34 NA NA NOT_NAMED 1884-09-16 15:00:00 TS 16.3348 -31.5075 main 1511 1511 _____________P -1 16.3348 -31.5075 TS 50 11 298
1884259N14338 1884 34 NA NA NOT_NAMED 1884-09-16 18:00:00 TS 16.6000 -32.0000 main 1567 1567 _____________O -1 16.6000 -32.0000 TS 50 11 298
1884259N14338 1884 34 NA NA NOT_NAMED 1884-09-16 21:00:00 TS 16.8499 -32.5001 main 1622 1622 _____________P -1 16.8499 -32.5001 TS 50 11 298
1884259N14338 1884 34 NA NA NOT_NAMED 1884-09-17 00:00:00 TS 17.1000 -33.0000 main 1679 1679 _____________O -1 17.1000 -33.0000 TS 50 11 298
1884259N14338 1884 34 NA NA NOT_NAMED 1884-09-17 03:00:00 TS 17.3574 -33.5001 main 1736 1736 _____________P -1 17.3574 -33.5001 TS 50 11 298
1884259N14338 1884 34 NA NA NOT_NAMED 1884-09-17 06:00:00 TS 17.6000 -34.0000 main 1791 1791 _____________O -1 17.6000 -34.0000 TS 50 11 294
1884259N14338 1884 34 NA NA NOT_NAMED 1884-09-17 09:00:00 TS 17.7924 -34.5078 main 1847 1847 _____________P -1 17.7924 -34.5078 TS 50 10 293
1884259N14338 1884 34 NA NA NOT_NAMED 1884-09-17 12:00:00 TS 18.0000 -35.0000 main 1902 1902 _____________O -1 18.0000 -35.0000 TS 50 10 299
1884259N14338 1884 34 NA NA NOT_NAMED 1884-09-17 15:00:00 TS 18.2923 -35.4575 main 1947 1947 _____________P -1 18.2923 -35.4575 TS 50 10 305
1884259N14338 1884 34 NA NA NOT_NAMED 1884-09-17 18:00:00 TS 18.6000 -35.9000 main 1982 1982 _____________O -1 18.6000 -35.9000 TS 50 10 303
1884259N14338 1884 34 NA NA NOT_NAMED 1884-09-17 21:00:00 TS 18.8499 -36.3577 main 2030 2028 _____________P -1 18.8499 -36.3577 TS 50 10 300
1884259N14338 1884 34 NA NA NOT_NAMED 1884-09-18 00:00:00 TS 19.1000 -36.8000 main 2066 2066 _____________O -1 19.1000 -36.8000 TS 50 10 305
1884259N14338 1884 34 NA NA NOT_NAMED 1884-09-18 03:00:00 TS 19.3998 -37.2001 main 2103 2103 _____________P -1 19.3998 -37.2001 TS 50 10 308
1884259N14338 1884 34 NA NA NOT_NAMED 1884-09-18 06:00:00 TS 19.7000 -37.6000 main 2140 2140 _____________O -1 19.7000 -37.6000 TS 50 10 305
1884259N14338 1884 34 NA NA NOT_NAMED 1884-09-18 09:00:00 TS 19.9574 -38.0427 main 2178 2178 _____________P -1 19.9574 -38.0427 TS 50 10 301
1884259N14338 1884 34 NA NA NOT_NAMED 1884-09-18 12:00:00 TS 20.2000 -38.5000 main 2227 2227 _____________O -1 20.2000 -38.5000 TS 50 10 300
1884259N14338 1884 34 NA NA NOT_NAMED 1884-09-18 15:00:00 TS 20.4574 -38.9501 main 2249 2239 _____________P -1 20.4574 -38.9501 TS 50 10 301
1884259N14338 1884 34 NA NA NOT_NAMED 1884-09-18 18:00:00 TS 20.7000 -39.4000 main 2242 2233 _____________O -1 20.7000 -39.4000 TS 50 10 298
1884259N14338 1884 34 NA NA NOT_NAMED 1884-09-18 21:00:00 TS 20.8999 -39.8503 main 2229 2218 _____________P -1 20.8999 -39.8503 TS 50 9 295
1884259N14338 1884 34 NA NA NOT_NAMED 1884-09-19 00:00:00 TS 21.1000 -40.3000 main 2220 2210 _____________O -1 21.1000 -40.3000 TS 50 10 298
1884259N14338 1884 34 NA NA NOT_NAMED 1884-09-19 03:00:00 TS 21.3499 -40.7575 main 2206 2206 _____________P -1 21.3499 -40.7575 TS 50 10 301
1884259N14338 1884 34 NA NA NOT_NAMED 1884-09-19 06:00:00 TS 21.6000 -41.2000 main 2209 2200 _____________O -1 21.6000 -41.2000 TS 50 9 299
1884259N14338 1884 34 NA NA NOT_NAMED 1884-09-19 09:00:00 TS 21.7849 -41.6153 main 2203 2196 _____________P -1 21.7849 -41.6153 TS 50 8 298
1884259N14338 1884 34 NA NA NOT_NAMED 1884-09-19 12:00:00 TS 22.0000 -42.0000 main 2199 2194 _____________O -1 22.0000 -42.0000 TS 50 9 308
1884259N14338 1884 34 NA NA NOT_NAMED 1884-09-19 15:00:00 TS 22.3349 -42.3649 main 2206 2206 _____________P -1 22.3349 -42.3649 TS 52 10 317
1884259N14338 1884 34 NA NA NOT_NAMED 1884-09-19 18:00:00 TS 22.7000 -42.7000 main 2229 2229 _____________O -1 22.7000 -42.7000 TS 55 9 319
1884259N14338 1884 34 NA NA NOT_NAMED 1884-09-19 21:00:00 TS 23.0074 -43.0077 main 2243 2243 _____________P -1 23.0074 -43.0077 TS 55 8 317
1884259N14338 1884 34 NA NA NOT_NAMED 1884-09-20 00:00:00 TS 23.3000 -43.3000 main 2257 2257 _____________O -1 23.3000 -43.3000 TS 55 8 317
1884259N14338 1884 34 NA NA NOT_NAMED 1884-09-20 03:00:00 TS 23.5999 -43.6001 main 2273 2273 _____________P -1 23.5999 -43.6001 TS 55 8 318
1884259N14338 1884 34 NA NA NOT_NAMED 1884-09-20 06:00:00 TS 23.9000 -43.9000 main 2289 2289 _____________O -1 23.9000 -43.9000 TS 55 8 318
1884259N14338 1884 34 NA NA NOT_NAMED 1884-09-20 09:00:00 TS 24.1923 -44.1779 main 2306 2284 _____________P -1 24.1923 -44.1779 TS 55 8 318
1884259N14338 1884 34 NA NA NOT_NAMED 1884-09-20 12:00:00 TS 24.5000 -44.5000 main 2284 2252 _____________O -1 24.5000 -44.5000 TS 55 10 314
1884259N14338 1884 34 NA NA NOT_NAMED 1884-09-20 15:00:00 TS 24.8500 -44.9274 main 2255 2216 _____________P -1 24.8500 -44.9274 TS 55 11 311
1884259N14338 1884 34 NA NA NOT_NAMED 1884-09-20 18:00:00 TS 25.2000 -45.4000 main 2216 2183 _____________O -1 25.2000 -45.4000 TS 55 11 308
1884259N14338 1884 34 NA NA NOT_NAMED 1884-09-20 21:00:00 TS 25.5074 -45.8503 main 2177 2149 _____________P -1 25.5074 -45.8503 TS 55 10 306
1884259N14338 1884 34 NA NA NOT_NAMED 1884-09-21 00:00:00 TS 25.8000 -46.3000 main 2149 2119 _____________O -1 25.8000 -46.3000 TS 55 10 306
1884259N14338 1884 34 NA NA NOT_NAMED 1884-09-21 03:00:00 TS 26.0999 -46.7577 main 2113 2088 _____________P -1 26.0999 -46.7577 TS 57 10 307
1884259N14338 1884 34 NA NA NOT_NAMED 1884-09-21 06:00:00 TS 26.4000 -47.2000 main 2088 2060 _____________O -1 26.4000 -47.2000 TS 60 10 307
1884259N14338 1884 34 NA NA NOT_NAMED 1884-09-21 09:00:00 TS 26.6774 -47.6154 main 2064 2041 _____________P -1 26.6774 -47.6154 TS 60 9 310
1884259N14338 1884 34 NA NA NOT_NAMED 1884-09-21 12:00:00 TS 27.0000 -48.0000 main 2041 2028 _____________O -1 27.0000 -48.0000 TS 60 10 318
1884259N14338 1884 34 NA NA NOT_NAMED 1884-09-21 15:00:00 TS 27.4274 -48.3651 main 2024 2018 _____________P -1 27.4274 -48.3651 TS 60 11 325
1884259N14338 1884 34 NA NA NOT_NAMED 1884-09-21 18:00:00 TS 27.9000 -48.7000 main 2023 2017 _____________O -1 27.9000 -48.7000 TS 60 11 328
1884259N14338 1884 34 NA NA NOT_NAMED 1884-09-21 21:00:00 TS 28.3499 -49.0078 main 2019 2010 _____________P -1 28.3499 -49.0078 TS 60 10 330
1884259N14338 1884 34 NA NA NOT_NAMED 1884-09-22 00:00:00 TS 28.8000 -49.3000 main 2010 1962 _____________O -1 28.8000 -49.3000 TS 60 10 330
1884259N14338 1884 34 NA NA NOT_NAMED 1884-09-22 03:00:00 TS 29.2574 -49.6002 main 1951 1903 _____________P -1 29.2574 -49.6002 TS 60 10 330
1884259N14338 1884 34 NA NA NOT_NAMED 1884-09-22 06:00:00 TS 29.7000 -49.9000 main 1903 1855 _____________O -1 29.7000 -49.9000 TS 60 10 327
1884259N14338 1884 34 NA NA NOT_NAMED 1884-09-22 09:00:00 TS 30.1001 -50.2300 main 1855 1807 _____________P -1 30.1001 -50.2300 TS 62 10 327
1884259N14338 1884 34 NA NA NOT_NAMED 1884-09-22 12:00:00 TS 30.5000 -50.5000 main 1807 1761 _____________O -1 30.5000 -50.5000 HU 65 9 337
1884259N14338 1884 34 NA NA NOT_NAMED 1884-09-22 15:00:00 TS 30.9424 -50.6378 main 1761 1705 _____________P -1 30.9424 -50.6378 HU 67 9 349
1884259N14338 1884 34 NA NA NOT_NAMED 1884-09-22 18:00:00 TS 31.4000 -50.7000 main 1705 1660 _____________O -1 31.4000 -50.7000 HU 70 9 353
1884259N14338 1884 34 NA NA NOT_NAMED 1884-09-22 21:00:00 TS 31.8125 -50.7724 main 1660 1604 _____________P -1 31.8125 -50.7724 HU 72 9 355
1884259N14338 1884 34 NA NA NOT_NAMED 1884-09-23 00:00:00 TS 32.3000 -50.8000 main 1604 1538 _____________O -1 32.3000 -50.8000 HU 75 12 359
1884259N14338 1884 34 NA NA NOT_NAMED 1884-09-23 03:00:00 TS 32.9700 -50.7726 main 1527 1450 _____________P -1 32.9700 -50.7726 HU 77 14 3
1884259N14338 1884 34 NA NA NOT_NAMED 1884-09-23 06:00:00 TS 33.7000 -50.7000 main 1450 1384 _____________O -1 33.7000 -50.7000 HU 80 13 2
1884259N14338 1884 34 NA NA NOT_NAMED 1884-09-23 09:00:00 TS 34.3118 -50.7017 main 1384 1310 _____________P -1 34.3118 -50.7017 HU 82 13 7
1884259N14338 1884 34 NA NA NOT_NAMED 1884-09-23 12:00:00 TS 35.0000 -50.5000 main 1310 1221 _____________O -1 35.0000 -50.5000 HU 85 17 24
1884259N14338 1884 34 NA NA NOT_NAMED 1884-09-23 15:00:00 TS 35.9059 -49.8495 main 1223 1141 _____________P -1 35.9059 -49.8495 HU 85 23 33
1884259N14338 1884 34 NA NA NOT_NAMED 1884-09-23 18:00:00 TS 36.9000 -49.0000 main 1133 1057 _____________O -1 36.9000 -49.0000 HU 85 24 34
1884259N14338 1884 34 NA NA NOT_NAMED 1884-09-23 21:00:00 TS 37.8576 -48.2123 main 1050 989 _____________P -1 37.8576 -48.2123 HU 85 22 32
1884259N14338 1884 34 NA NA NOT_NAMED 1884-09-24 00:00:00 TS 38.8000 -47.5000 main 983 925 _____________O -1 38.8000 -47.5000 HU 85 21 27
1884259N14338 1884 34 NA NA NOT_NAMED 1884-09-24 03:00:00 TS 39.6986 -46.9954 main 915 860 _____________P -1 39.6986 -46.9954 HU 85 20 23
1884259N14338 1884 34 NA NA NOT_NAMED 1884-09-24 06:00:00 TS 40.6000 -46.5000 main 856 803 _____________O -1 40.6000 -46.5000 HU 85 21 24
1884259N14338 1884 34 NA NA NOT_NAMED 1884-09-24 09:00:00 TS 41.6158 -45.8627 main 803 784 _____________P -1 41.6158 -45.8627 HU 85 22 31
1884259N14338 1884 34 NA NA NOT_NAMED 1884-09-24 12:00:00 TS 42.5000 -45.0000 main 790 789 _____________O -1 42.5000 -45.0000 HU 85 21 47
1884259N14338 1884 34 NA NA NOT_NAMED 1884-09-24 15:00:00 TS 43.0257 -43.8215 main 835 835 _____________P -1 43.0257 -43.8215 HU 80 20 64
1884259N14338 1884 34 NA NA NOT_NAMED 1884-09-24 18:00:00 ET 43.4000 -42.5000 main 902 902 _____________O -1 43.4000 -42.5000 EX 75 21 67
1884259N14338 1884 34 NA NA NOT_NAMED 1884-09-24 21:00:00 ET 43.8498 -41.2116 main 972 972 _____________P -1 43.8498 -41.2116 EX 72 20 63
1884259N14338 1884 34 NA NA NOT_NAMED 1884-09-25 00:00:00 ET 44.3000 -40.0000 main 1032 1032 _____________O -1 44.3000 -40.0000 EX 70 18 61
1884259N14338 1884 34 NA NA NOT_NAMED 1884-09-25 03:00:00 ET 44.7395 -38.9963 main 1087 1087 _____________P -1 44.7395 -38.9963 EX 70 17 58
1884259N14338 1884 34 NA NA NOT_NAMED 1884-09-25 06:00:00 ET 45.2000 -38.0000 main 1142 1142 _____________O -1 45.2000 -38.0000 EX 70 18 58
1884259N14338 1884 34 NA NA NOT_NAMED 1884-09-25 09:00:00 ET 45.6985 -36.8236 main 1216 1216 _____________P -1 45.6985 -36.8236 EX 70 20 60
1884259N14338 1884 34 NA NA NOT_NAMED 1884-09-25 12:00:00 ET 46.2000 -35.5000 main 1300 1300 _____________O -1 46.2000 -35.5000 EX 70 967 21 64
1884259N14338 1884 34 NA NA NOT_NAMED 1884-09-25 15:00:00 ET 46.6495 -34.0347 main 1403 1401 _____________P -1 46.6495 -34.0347 EX 70 22 66
1884259N14338 1884 34 NA NA NOT_NAMED 1884-09-25 18:00:00 ET 47.1000 -32.5000 main 1505 1505 _____________O -1 47.1000 -32.5000 EX 70 23 65
1884259N14338 1884 34 NA NA NOT_NAMED 1884-09-25 21:00:00 ET 47.5897 -31.0196 main 1539 1421 _____________P -1 47.5897 -31.0196 EX 67 22 64
1884259N14338 1884 34 NA NA NOT_NAMED 1884-09-26 00:00:00 ET 48.1000 -29.5000 main 1414 1291 _____________O -1 48.1000 -29.5000 EX 65 23 64
1884259N14338 1884 34 NA NA NOT_NAMED 1884-09-26 03:00:00 ET 48.6064 -27.8633 main 1284 1155 _____________P -1 48.6064 -27.8633 EX 62 24 65
1884259N14338 1884 34 NA NA NOT_NAMED 1884-09-26 06:00:00 ET 49.1000 -26.2000 main 1149 1032 _____________O -1 49.1000 -26.2000 EX 60 23 66
1884259N14338 1884 34 NA NA NOT_NAMED 1884-09-26 09:00:00 ET 49.5466 -24.6097 main 1025 905 _____________P -1 49.5466 -24.6097 EX 60 23 67
1884259N14338 1884 34 NA NA NOT_NAMED 1884-09-26 12:00:00 ET 50.0000 -23.0000 main 898 773 _____________O -1 50.0000 -23.0000 EX 60 23 66
1884259N14338 1884 34 NA NA NOT_NAMED 1884-09-26 15:00:00 ET 50.4937 -21.2919 main 767 637 _____________P -1 50.4937 -21.2919 EX 60 24 66
1884259N14338 1884 34 NA NA NOT_NAMED 1884-09-26 18:00:00 ET 51.0000 -19.5000 main 630 _____________O -1 51.0000 -19.5000 EX 60 25 66

IBTrACS Databaseについて

本データベースは、米国NOAAが公開する1842年以降の世界の熱帯低気圧のベストトラックデータアーカイブInternational Best Track Archive for Climate Stewardship (IBTrACS)を、ウェブで閲覧しやすい形式に変換したものです。

最終更新日:2021-10-08